Terminal Aerodrome Forecast
Issued by NWS

Home | Current Version | Previous Version | Text Only | Print | Product List | Glossary On
Versions: 1 2 3 4 5 6 7 8 9 10 11 12 13 14 15 16 17 18 19 20
000
FTUS42 KFFC 202347
TAFFTY
TAF
KFTY 202347Z 2100/2124 19008KT P6SM SCT050
     FM210200 VRB04KT P6SM BKN050
     FM210400 00000KT P6SM SCT007 OVC025
     FM210600 00000KT 5SM BR BKN007 OVC015
     FM210900 00000KT 3SM BR OVC004
     FM211200 16004KT 3SM -TSRA BKN004 OVC015CB
     FM211600 16004KT 5SM -TSRA BKN007 OVC010CB
     FM212100 17006KT 5SM BR VCSH BKN012=

USA.gov is the U.S. government's official web portal to all federal, state and local government web resources and services.